createdAt,value
2023-03-03T00:00:48.120Z,63.57
2023-03-03T00:03:17.024Z,60.20
2023-03-03T00:05:44.269Z,52.13
2023-03-03T00:08:11.984Z,55.60
2023-03-03T00:10:39.445Z,67.00
2023-03-03T00:13:14.396Z,51.80
2023-03-03T00:15:41.711Z,92.43
2023-03-03T00:18:19.769Z,64.33
2023-03-03T00:20:57.418Z,70.33
2023-03-03T00:23:30.894Z,55.87
2023-03-03T00:25:59.524Z,43.33
2023-03-03T00:28:29.913Z,60.57
2023-03-03T00:30:58.903Z,58.30
2023-03-03T00:33:42.707Z,80.13
2023-03-03T00:36:21.308Z,59.00
2023-03-03T00:38:49.286Z,68.67
2023-03-03T00:41:21.894Z,68.60
2023-03-03T00:43:49.152Z,52.07
2023-03-03T00:46:19.447Z,49.30
2023-03-03T00:48:47.316Z,80.97
2023-03-03T00:51:23.808Z,75.80
2023-03-03T00:53:51.596Z,68.07
2023-03-03T00:56:18.828Z,57.10
2023-03-03T00:58:49.017Z,48.23
2023-03-03T01:01:16.976Z,65.83
2023-03-03T01:03:44.592Z,55.23
2023-03-03T01:06:15.910Z,54.70
2023-03-03T01:08:43.276Z,50.27
2023-03-03T01:11:12.716Z,47.30
2023-03-03T01:13:41.581Z,49.77
2023-03-03T01:16:08.879Z,70.77
2023-03-03T01:18:36.342Z,50.73
2023-03-03T01:21:03.615Z,44.13
2023-03-03T01:23:30.885Z,45.53
2023-03-03T01:25:58.230Z,73.87
2023-03-03T01:28:25.602Z,72.60
2023-03-03T01:30:53.100Z,52.70
2023-03-03T01:33:20.466Z,60.17
2023-03-03T01:35:48.622Z,40.10
2023-03-03T01:38:16.779Z,70.07
2023-03-03T01:40:44.276Z,53.20
2023-03-03T01:43:15.993Z,49.37
2023-03-03T01:46:03.152Z,52.47
2023-03-03T01:48:48.502Z,72.43
2023-03-03T01:51:15.690Z,53.10
2023-03-03T01:53:44.414Z,45.33
2023-03-03T01:56:11.753Z,52.03
2023-03-03T01:59:02.385Z,54.90
2023-03-03T02:01:30.017Z,57.57
2023-03-03T02:03:57.630Z,47.70
2023-03-03T02:06:28.302Z,57.47
2023-03-03T02:09:00.546Z,63.80
2023-03-03T02:11:30.575Z,63.07
2023-03-03T02:13:57.819Z,58.80
2023-03-03T02:16:25.748Z,49.20
2023-03-03T02:18:53.001Z,69.07
2023-03-03T02:21:21.347Z,65.53
2023-03-03T02:24:03.639Z,50.97
2023-03-03T02:26:32.289Z,52.93
2023-03-03T02:28:59.483Z,50.40
2023-03-03T02:31:28.430Z,57.10
2023-03-03T02:33:56.004Z,42.40
2023-03-03T02:36:33.878Z,50.73
2023-03-03T02:39:20.011Z,55.77
2023-03-03T02:42:02.870Z,43.37
2023-03-03T02:44:31.351Z,44.90
2023-03-03T02:46:59.088Z,29.33
2023-03-03T02:49:27.586Z,39.50
2023-03-03T02:51:55.723Z,34.67
2023-03-03T02:54:24.715Z,30.87
2023-03-03T02:56:52.024Z,33.20
2023-03-03T02:59:19.561Z,52.53
2023-03-03T03:01:47.763Z,38.13
2023-03-03T03:04:16.112Z,47.67
2023-03-03T03:06:44.053Z,32.70
2023-03-03T03:09:11.694Z,34.77
2023-03-03T03:11:39.408Z,39.43
2023-03-03T03:14:07.715Z,30.57
2023-03-03T03:16:35.374Z,35.70
2023-03-03T03:19:03.027Z,56.13
2023-03-03T03:21:30.648Z,55.50
2023-03-03T03:23:57.910Z,40.13
2023-03-03T03:26:25.255Z,37.80
2023-03-03T03:28:52.590Z,34.90
2023-03-03T03:31:20.498Z,49.33
2023-03-03T03:33:47.766Z,37.53
2023-03-03T03:36:14.949Z,38.43
2023-03-03T03:38:42.316Z,49.03
2023-03-03T03:41:09.572Z,53.93
2023-03-03T03:43:36.903Z,31.30
2023-03-03T03:46:04.317Z,38.37
2023-03-03T03:48:31.814Z,37.97
2023-03-03T03:50:59.079Z,39.63
2023-03-03T03:53:26.303Z,32.60
2023-03-03T03:55:53.835Z,39.73
2023-03-03T03:58:21.210Z,38.50
2023-03-03T04:00:48.601Z,37.70
2023-03-03T04:03:16.265Z,43.60
2023-03-03T04:05:44.294Z,45.17
2023-03-03T04:08:11.601Z,41.87
2023-03-03T04:10:39.320Z,43.53
2023-03-03T04:13:06.579Z,32.13
2023-03-03T04:15:33.941Z,32.83
2023-03-03T04:18:01.295Z,26.80
2023-03-03T04:20:28.509Z,37.90
2023-03-03T04:22:57.230Z,44.43
2023-03-03T04:25:24.538Z,29.23
2023-03-03T04:27:52.892Z,35.77
2023-03-03T04:30:20.189Z,30.50
2023-03-03T04:32:47.831Z,31.57
2023-03-03T04:35:15.029Z,46.63
2023-03-03T04:37:42.279Z,32.87
2023-03-03T04:40:09.812Z,28.33
2023-03-03T04:42:37.459Z,34.13
2023-03-03T04:45:05.514Z,29.37
2023-03-03T04:47:33.371Z,29.30
2023-03-03T04:50:00.956Z,33.60
2023-03-03T04:52:28.309Z,24.07
2023-03-03T04:54:56.016Z,25.90
2023-03-03T04:57:23.287Z,25.10
2023-03-03T04:59:51.582Z,47.00
2023-03-03T05:02:18.852Z,37.47
2023-03-03T05:04:46.237Z,32.43
2023-03-03T05:07:13.791Z,51.90
2023-03-03T05:09:41.195Z,28.87
2023-03-03T05:12:08.547Z,39.93
2023-03-03T05:14:35.964Z,33.40
2023-03-03T05:17:04.648Z,28.90
2023-03-03T05:19:31.928Z,27.13
2023-03-03T05:21:59.202Z,49.07
2023-03-03T05:24:26.409Z,21.63
2023-03-03T05:26:53.857Z,25.60
2023-03-03T05:29:21.080Z,27.83
2023-03-03T05:31:48.664Z,27.47
2023-03-03T05:34:15.887Z,32.07
2023-03-03T05:36:43.204Z,41.17
2023-03-03T05:39:10.403Z,28.90
2023-03-03T05:41:37.762Z,28.67
2023-03-03T05:44:05.606Z,34.93
2023-03-03T05:46:32.852Z,28.60
2023-03-03T05:49:00.098Z,35.80
2023-03-03T05:51:27.483Z,23.47
2023-03-03T05:53:56.441Z,24.37
2023-03-03T05:56:23.826Z,20.33
2023-03-03T05:58:51.285Z,25.07
2023-03-03T06:01:18.610Z,24.33
2023-03-03T06:03:45.854Z,25.10
2023-03-03T06:06:14.220Z,26.83
2023-03-03T06:08:45.016Z,25.07
2023-03-03T06:11:13.232Z,23.70
2023-03-03T06:13:42.820Z,23.07
2023-03-03T06:16:10.037Z,23.83
2023-03-03T06:18:37.630Z,26.57
2023-03-03T06:21:05.154Z,23.83
2023-03-03T06:23:32.384Z,25.70
2023-03-03T06:25:59.616Z,24.70
2023-03-03T06:28:27.344Z,25.00
2023-03-03T06:30:55.186Z,24.40
2023-03-03T06:33:22.967Z,23.37
2023-03-03T06:35:50.998Z,34.20
2023-03-03T06:38:18.304Z,31.30
2023-03-03T06:40:46.438Z,23.80
2023-03-03T06:43:13.857Z,26.83
2023-03-03T06:45:41.611Z,17.97
2023-03-03T06:48:08.871Z,19.07
2023-03-03T06:50:36.192Z,21.43
2023-03-03T06:53:11.726Z,23.37
2023-03-03T06:55:39.368Z,23.43
2023-03-03T06:58:12.783Z,19.67
2023-03-03T07:00:41.636Z,22.63
2023-03-03T07:03:13.147Z,21.70
2023-03-03T07:05:40.359Z,22.83
2023-03-03T07:08:13.679Z,35.60
2023-03-03T07:10:40.974Z,29.47
2023-03-03T07:13:18.945Z,35.00
2023-03-03T07:15:46.192Z,25.37
2023-03-03T07:18:26.574Z,24.37
2023-03-03T07:20:53.788Z,32.53
2023-03-03T07:23:32.697Z,33.60
2023-03-03T07:25:59.974Z,28.30
2023-03-03T07:28:29.246Z,27.87
2023-03-03T07:30:58.176Z,27.10
2023-03-03T07:33:25.702Z,24.97
2023-03-03T07:35:54.485Z,36.63
2023-03-03T07:38:32.444Z,32.83
2023-03-03T07:41:01.255Z,33.40
2023-03-03T07:43:36.723Z,30.63
2023-03-03T07:46:25.899Z,30.87
2023-03-03T07:48:53.491Z,32.03
2023-03-03T07:51:31.859Z,35.40
2023-03-03T07:54:15.293Z,29.13
2023-03-03T07:56:42.579Z,36.43
2023-03-03T07:59:22.863Z,32.60
2023-03-03T08:01:52.722Z,28.83
2023-03-03T08:04:23.283Z,27.63
2023-03-03T08:06:54.959Z,32.73
2023-03-03T08:09:28.007Z,32.37
2023-03-03T08:12:07.382Z,30.33
2023-03-03T08:14:38.857Z,33.43
2023-03-03T08:17:21.523Z,37.63
2023-03-03T08:19:49.088Z,36.90
2023-03-03T08:22:18.417Z,36.50
2023-03-03T08:24:45.819Z,38.73
2023-03-03T08:27:13.112Z,36.60
2023-03-03T08:29:40.431Z,33.83
2023-03-03T08:32:08.033Z,33.97
2023-03-03T08:34:35.325Z,33.20
2023-03-03T08:37:02.652Z,30.37
2023-03-03T08:39:29.932Z,34.77
2023-03-03T08:41:57.122Z,36.73
2023-03-03T08:44:24.510Z,37.37
2023-03-03T08:46:51.770Z,43.93
2023-03-03T08:49:18.985Z,39.53
2023-03-03T08:51:46.202Z,35.77
2023-03-03T08:54:13.589Z,33.40
2023-03-03T08:56:40.882Z,41.73
2023-03-03T08:59:08.289Z,35.80
2023-03-03T09:01:35.791Z,43.27
2023-03-03T09:04:02.963Z,40.47
2023-03-03T09:06:30.543Z,38.00
2023-03-03T09:08:57.813Z,39.67
2023-03-03T09:11:27.416Z,46.80
2023-03-03T09:14:03.732Z,45.60
2023-03-03T09:16:35.796Z,41.63
2023-03-03T09:19:16.371Z,41.07
2023-03-03T09:21:43.608Z,42.47
2023-03-03T09:24:19.925Z,42.50
2023-03-03T09:26:47.719Z,40.20
2023-03-03T09:29:16.222Z,45.47
2023-03-03T09:31:47.020Z,36.13
2023-03-03T09:34:27.813Z,38.13
2023-03-03T09:36:55.832Z,42.70
2023-03-03T09:39:25.247Z,40.07
2023-03-03T09:42:07.546Z,40.13
2023-03-03T09:44:37.805Z,47.03
2023-03-03T09:47:05.176Z,45.10
2023-03-03T09:49:33.552Z,44.13
2023-03-03T09:52:05.695Z,52.37
2023-03-03T09:54:38.948Z,49.50
2023-03-03T09:57:11.670Z,41.43
2023-03-03T09:59:38.873Z,40.83
2023-03-03T10:02:29.514Z,36.57
2023-03-03T10:05:14.607Z,42.30
2023-03-03T10:08:00.524Z,45.70
2023-03-03T10:10:46.383Z,50.73
2023-03-03T10:13:22.636Z,46.17
2023-03-03T10:16:08.284Z,43.43
2023-03-03T10:18:45.858Z,44.37
2023-03-03T10:21:37.155Z,43.43
2023-03-03T10:24:20.598Z,50.10
2023-03-03T10:27:14.295Z,54.03
2023-03-03T10:29:56.864Z,45.97
2023-03-03T10:32:27.294Z,49.93
2023-03-03T10:35:03.708Z,52.03
2023-03-03T10:37:56.979Z,45.67
2023-03-03T10:40:32.893Z,54.80
2023-03-03T10:43:31.117Z,45.37
2023-03-03T10:46:17.920Z,41.90
2023-03-03T10:48:48.025Z,46.47
2023-03-03T10:51:30.711Z,39.57
2023-03-03T10:54:10.298Z,41.90
2023-03-03T10:56:56.058Z,37.23
2023-03-03T10:59:23.373Z,40.40
2023-03-03T11:01:54.345Z,40.90
2023-03-03T11:04:40.277Z,39.73
2023-03-03T11:07:07.661Z,41.13
2023-03-03T11:09:47.347Z,35.90
2023-03-03T11:12:23.825Z,37.57
2023-03-03T11:15:06.238Z,39.17
2023-03-03T11:17:52.179Z,39.63
2023-03-03T11:20:28.571Z,39.97
2023-03-03T11:22:55.717Z,31.87
2023-03-03T11:25:23.262Z,41.90
2023-03-03T11:27:53.332Z,38.00
2023-03-03T11:30:26.505Z,31.63
2023-03-03T11:33:05.896Z,34.93
2023-03-03T11:35:38.173Z,35.23
2023-03-03T11:38:05.510Z,40.00
2023-03-03T11:40:51.648Z,45.07
2023-03-03T11:43:37.340Z,45.57
2023-03-03T11:46:09.822Z,39.30
2023-03-03T11:48:40.743Z,42.33
2023-03-03T11:51:12.485Z,38.27
2023-03-03T11:53:58.567Z,35.17
2023-03-03T11:56:31.046Z,34.23
2023-03-03T11:59:01.013Z,36.80
2023-03-03T12:01:40.171Z,44.53
2023-03-03T12:04:10.373Z,33.57
2023-03-03T12:06:43.855Z,32.83
2023-03-03T12:09:12.445Z,36.43
2023-03-03T12:11:46.373Z,32.20
2023-03-03T12:14:26.515Z,37.63
2023-03-03T12:16:59.368Z,38.47
2023-03-03T12:19:45.023Z,37.57
2023-03-03T12:22:31.152Z,39.63
2023-03-03T12:25:04.833Z,33.90
2023-03-03T12:27:40.130Z,34.10
2023-03-03T12:30:14.590Z,42.40
2023-03-03T12:32:47.971Z,40.77
2023-03-03T12:35:25.246Z,32.67
2023-03-03T12:37:58.951Z,31.97
2023-03-03T12:40:30.832Z,27.30
2023-03-03T12:43:05.819Z,23.87
2023-03-03T12:45:33.046Z,21.57
2023-03-03T12:48:10.526Z,24.07
2023-03-03T12:50:55.837Z,24.50
2023-03-03T12:53:33.218Z,22.80
2023-03-03T12:56:00.480Z,20.07
2023-03-03T12:58:47.056Z,18.87
2023-03-03T13:01:32.881Z,20.50
2023-03-03T13:04:05.883Z,19.83
2023-03-03T13:06:37.092Z,19.80
2023-03-03T13:09:33.667Z,18.23
2023-03-03T13:12:10.157Z,18.97
2023-03-03T13:14:43.233Z,22.67
2023-03-03T13:17:11.739Z,19.13
2023-03-03T13:19:42.217Z,19.60
2023-03-03T13:22:23.340Z,19.90
2023-03-03T13:25:00.191Z,23.90
2023-03-03T13:27:32.427Z,16.50
2023-03-03T13:30:04.499Z,15.97
2023-03-03T13:32:41.693Z,19.17
2023-03-03T13:35:17.535Z,19.97
2023-03-03T13:37:50.209Z,17.87
2023-03-03T13:40:18.813Z,21.50
2023-03-03T13:42:45.997Z,24.70
2023-03-03T13:45:25.035Z,21.40
2023-03-03T13:47:52.264Z,21.17
2023-03-03T13:50:49.253Z,19.33
2023-03-03T13:53:34.994Z,21.17
2023-03-03T13:56:18.078Z,19.83
2023-03-03T13:58:51.683Z,19.30
2023-03-03T14:01:23.503Z,18.03
2023-03-03T14:03:56.308Z,18.40
2023-03-03T14:06:24.927Z,22.97
2023-03-03T14:08:52.116Z,22.50
2023-03-03T14:11:28.470Z,26.70
2023-03-03T14:13:55.633Z,21.63
2023-03-03T14:16:35.292Z,21.93
2023-03-03T14:19:17.402Z,20.37
2023-03-03T14:21:44.607Z,23.17
2023-03-03T14:24:19.547Z,19.13
2023-03-03T14:26:47.874Z,18.00
2023-03-03T14:29:27.234Z,18.27
2023-03-03T14:32:06.204Z,22.60
2023-03-03T14:34:43.744Z,21.97
2023-03-03T14:37:40.614Z,19.13
2023-03-03T14:40:16.399Z,21.53
2023-03-03T14:42:49.068Z,27.67
2023-03-03T14:45:39.704Z,23.53
2023-03-03T14:48:12.358Z,29.00
2023-03-03T14:50:41.712Z,24.87
2023-03-03T14:53:16.654Z,24.03
2023-03-03T14:55:45.285Z,21.77
2023-03-03T14:58:35.894Z,20.90
2023-03-03T15:01:13.149Z,23.27
2023-03-03T15:03:45.880Z,22.80
2023-03-03T15:06:13.395Z,21.30
2023-03-03T15:08:41.852Z,21.00
2023-03-03T15:11:19.126Z,18.57
2023-03-03T15:13:46.724Z,20.50
2023-03-03T15:16:22.919Z,24.03
2023-03-03T15:19:11.745Z,23.10
2023-03-03T15:21:41.467Z,22.97
2023-03-03T15:24:29.337Z,22.53
2023-03-03T15:27:09.392Z,22.13
2023-03-03T15:29:50.916Z,18.83
2023-03-03T15:32:34.873Z,21.10
2023-03-03T15:35:26.451Z,17.80
2023-03-03T15:38:03.948Z,20.40
2023-03-03T15:40:38.139Z,18.67
2023-03-03T15:43:23.733Z,21.37
2023-03-03T15:45:55.042Z,22.47
2023-03-03T15:48:40.741Z,21.07
2023-03-03T15:51:11.140Z,24.00
2023-03-03T15:53:38.785Z,22.03
2023-03-03T15:56:18.341Z,24.60
2023-03-03T15:58:55.014Z,24.80
2023-03-03T16:01:28.855Z,26.27
2023-03-03T16:04:07.676Z,26.13
2023-03-03T16:06:38.664Z,20.37
2023-03-03T16:09:17.290Z,24.40
2023-03-03T16:11:47.740Z,22.47
2023-03-03T16:14:30.268Z,24.93
2023-03-03T16:17:03.774Z,21.63
2023-03-03T16:19:49.851Z,24.83
2023-03-03T16:22:42.308Z,24.90
2023-03-03T16:25:32.558Z,25.60
2023-03-03T16:28:08.104Z,22.10
2023-03-03T16:30:50.019Z,23.03
2023-03-03T16:33:23.251Z,23.73
2023-03-03T16:35:59.394Z,24.77
2023-03-03T16:38:26.799Z,21.80
2023-03-03T16:41:05.692Z,21.67
2023-03-03T16:43:44.691Z,18.93
2023-03-03T16:46:21.241Z,19.57
2023-03-03T16:48:59.825Z,19.17
2023-03-03T16:51:42.478Z,18.97
2023-03-03T16:54:12.386Z,20.43
2023-03-03T16:57:00.663Z,19.00
2023-03-03T16:59:36.583Z,20.30
2023-03-03T17:02:25.910Z,21.80
2023-03-03T17:05:08.010Z,23.10
2023-03-03T17:07:37.940Z,27.67
2023-03-03T17:10:37.601Z,24.87
2023-03-03T17:13:17.023Z,26.70
2023-03-03T17:15:44.382Z,30.77
2023-03-03T17:18:14.282Z,25.97
2023-03-03T17:20:44.891Z,26.17
2023-03-03T17:23:18.443Z,24.63
2023-03-03T17:26:05.939Z,31.73
2023-03-03T17:28:36.390Z,51.97
2023-03-03T17:31:12.749Z,71.70
2023-03-03T17:33:46.043Z,44.07
2023-03-03T17:36:33.508Z,30.23
2023-03-03T17:39:19.560Z,41.27
2023-03-03T17:42:01.041Z,38.53
2023-03-03T17:44:28.369Z,37.07
2023-03-03T17:47:10.514Z,37.90
2023-03-03T17:49:47.417Z,38.53
2023-03-03T17:52:23.011Z,35.50
2023-03-03T17:54:50.965Z,36.50
2023-03-03T17:57:37.686Z,36.77
2023-03-03T18:00:19.282Z,36.37
2023-03-03T18:02:46.864Z,38.57
2023-03-03T18:05:33.146Z,35.27
2023-03-03T18:08:37.508Z,39.63
2023-03-03T18:11:25.720Z,37.83
2023-03-03T18:13:53.302Z,43.23
2023-03-03T18:16:39.459Z,54.33
2023-03-03T18:19:07.120Z,45.73
2023-03-03T18:21:49.972Z,46.50
2023-03-03T18:24:29.646Z,49.00
2023-03-03T18:27:13.593Z,50.70
2023-03-03T18:29:41.544Z,44.97
2023-03-03T18:32:29.149Z,48.57
2023-03-03T18:35:16.475Z,55.50
2023-03-03T18:37:45.211Z,42.07
2023-03-03T18:40:19.476Z,42.23
2023-03-03T18:42:49.978Z,40.33
2023-03-03T18:45:20.418Z,41.00
2023-03-03T18:48:08.663Z,40.97
2023-03-03T18:50:37.304Z,41.33
2023-03-03T18:53:27.743Z,48.97
2023-03-03T18:56:02.289Z,39.77
2023-03-03T18:58:29.869Z,44.17
2023-03-03T19:00:59.987Z,44.83
2023-03-03T19:03:29.694Z,39.87
2023-03-03T19:06:01.074Z,41.03
2023-03-03T19:08:30.630Z,41.03
2023-03-03T19:11:02.110Z,43.73
2023-03-03T19:13:35.964Z,49.50
2023-03-03T19:16:04.166Z,46.20
2023-03-03T19:18:51.568Z,45.70
2023-03-03T19:21:22.065Z,48.60
2023-03-03T19:24:00.755Z,45.77
2023-03-03T19:26:29.468Z,44.27
2023-03-03T19:28:59.469Z,45.63
2023-03-03T19:31:29.448Z,52.07
2023-03-03T19:34:01.594Z,45.00
2023-03-03T19:36:28.920Z,55.30
2023-03-03T19:39:05.426Z,60.80
2023-03-03T19:41:42.251Z,46.83
2023-03-03T19:44:21.438Z,57.73
2023-03-03T19:46:48.672Z,56.40
2023-03-03T19:49:22.354Z,53.63
2023-03-03T19:52:31.559Z,59.20
2023-03-03T19:55:21.170Z,54.07
2023-03-03T19:57:54.509Z,50.33
2023-03-03T20:00:31.452Z,60.43
2023-03-03T20:03:13.208Z,56.83
2023-03-03T20:09:05.178Z,52.23
2023-03-03T20:11:48.103Z,53.40
2023-03-03T20:14:36.364Z,55.40
2023-03-03T20:17:22.950Z,54.57
2023-03-03T20:19:53.488Z,52.10
2023-03-03T20:22:37.472Z,53.57
2023-03-03T20:25:20.697Z,50.00
2023-03-03T20:27:55.754Z,53.67
2023-03-03T20:30:32.961Z,49.90
2023-03-03T20:33:00.328Z,41.53
2023-03-03T20:35:38.597Z,48.30
2023-03-03T20:38:30.799Z,47.40
2023-03-03T20:40:58.144Z,45.90
2023-03-03T20:43:40.929Z,41.03
2023-03-03T20:46:16.073Z,44.93
2023-03-03T20:49:06.765Z,40.70
2023-03-03T20:51:54.524Z,49.17
2023-03-03T20:54:33.138Z,44.57
2023-03-03T20:57:00.422Z,50.57
2023-03-03T20:59:34.659Z,53.30
2023-03-03T21:02:02.450Z,46.30
2023-03-03T21:04:31.604Z,41.20
2023-03-03T21:07:09.266Z,41.27
2023-03-03T21:09:38.945Z,46.60
2023-03-03T21:12:26.133Z,50.67
2023-03-03T21:15:03.659Z,51.13
2023-03-03T21:17:31.388Z,49.83
2023-03-03T21:20:18.570Z,47.30
2023-03-03T21:22:45.870Z,44.10
2023-03-03T21:25:33.039Z,44.27
2023-03-03T21:28:19.164Z,45.50
2023-03-03T21:31:05.146Z,50.87
2023-03-03T21:33:47.725Z,49.13
2023-03-03T21:36:16.802Z,41.70
2023-03-03T21:38:46.370Z,45.27
2023-03-03T21:41:15.456Z,54.40
2023-03-03T21:43:44.384Z,46.33
2023-03-03T21:46:12.768Z,41.40
2023-03-03T21:48:43.757Z,48.13
2023-03-03T21:51:14.163Z,44.93
2023-03-03T21:53:45.298Z,39.73
2023-03-03T21:56:16.048Z,43.97
2023-03-03T21:58:43.382Z,43.37
2023-03-03T22:01:10.952Z,41.60
2023-03-03T22:03:38.590Z,49.47
2023-03-03T22:06:06.097Z,49.53
2023-03-03T22:08:33.440Z,41.73
2023-03-03T22:11:01.009Z,43.73
2023-03-03T22:13:28.415Z,46.07
2023-03-03T22:15:55.828Z,39.60
2023-03-03T22:18:23.249Z,39.83
2023-03-03T22:20:50.790Z,48.00
2023-03-03T22:23:21.419Z,43.43
2023-03-03T22:25:48.687Z,45.73
2023-03-03T22:28:15.909Z,44.10
2023-03-03T22:30:43.143Z,42.57
2023-03-03T22:33:10.375Z,43.33
2023-03-03T22:35:37.702Z,40.40
2023-03-03T22:38:05.162Z,42.73
2023-03-03T22:40:33.559Z,48.30
2023-03-03T22:43:01.096Z,40.67
2023-03-03T22:45:28.304Z,41.77
2023-03-03T22:47:55.474Z,45.23
2023-03-03T22:50:22.733Z,43.50
2023-03-03T22:52:49.985Z,36.03
2023-03-03T22:55:17.350Z,39.23
2023-03-03T22:57:44.606Z,40.50
2023-03-03T23:00:12.241Z,36.30
2023-03-03T23:02:40.021Z,36.97
2023-03-03T23:05:11.116Z,39.77
2023-03-03T23:07:39.890Z,40.30
2023-03-03T23:10:07.803Z,49.40
2023-03-03T23:12:35.100Z,63.47
2023-03-03T23:15:02.303Z,52.97
2023-03-03T23:17:29.461Z,37.33
2023-03-03T23:19:56.669Z,38.63
2023-03-03T23:22:23.884Z,34.90
2023-03-03T23:24:51.419Z,34.23
2023-03-03T23:27:18.836Z,35.20
2023-03-03T23:29:46.032Z,36.43
2023-03-03T23:32:13.402Z,31.33
2023-03-03T23:34:40.715Z,36.57
2023-03-03T23:37:08.015Z,38.10
2023-03-03T23:39:35.822Z,35.40
2023-03-03T23:42:03.034Z,35.13
2023-03-03T23:44:30.228Z,28.80
2023-03-03T23:46:57.533Z,34.27
2023-03-03T23:49:24.736Z,35.43
2023-03-03T23:51:52.048Z,37.60
2023-03-03T23:54:19.248Z,34.87
2023-03-03T23:56:46.679Z,29.50
2023-03-03T23:59:13.913Z,34.13
